Time;durP1;ratioP1;P1;durP2;ratioP2;P2;SDS_P1;SDS_P2;PMS_P1;PMS_P2;Temp;Humidity;BMP_temperature;BMP_pressure;BME280_temperature;BME280_humidity;BME280_pressure;Samples;Min_cycle;Max_cycle;Signal;HPM_P1;HPM_P2
2022/06/27 00:01:22;;;;;;;10.30;9.60;;;;;;;;;;5063396;28;24988;-46
2022/06/27 00:03:47;;;;;;;9.10;8.50;;;;;;;;;;5069755;28;24420;-46
2022/06/27 00:06:13;;;;;;;9.63;8.93;;;;;;;;;;5058487;28;24425;-46
2022/06/27 00:08:39;;;;;;;9.20;8.60;;;;;;;;;;5061698;28;26048;-47
2022/06/27 00:11:04;;;;;;;10.27;9.47;;;;;;;;;;5061032;28;24468;-46
2022/06/27 00:13:29;;;;;;;9.03;8.43;;;;;;;;;;5059641;28;24509;-46
2022/06/27 00:15:54;;;;;;;9.70;9.10;;;;;;;;;;5066561;28;25276;-46
2022/06/27 00:18:19;;;;;;;10.75;9.95;;;;;;;;;;5063781;28;24418;-47
2022/06/27 00:20:45;;;;;;;9.80;9.20;;;;;;;;;;5060082;28;24404;-46
2022/06/27 00:23:10;;;;;;;10.90;10.20;;;;;;;;;;5056966;28;24501;-46
2022/06/27 00:25:35;;;;;;;10.57;9.82;;;;;;;;;;5064476;28;24481;-47
2022/06/27 00:28:00;;;;;;;10.90;10.10;;;;;;;;;;5059151;28;24434;-47
2022/06/27 00:30:25;;;;;;;10.47;9.70;;;;;;;;;;5059667;28;24824;-46
2022/06/27 00:32:50;;;;;;;10.87;9.97;;;;;;;;;;5059688;28;24425;-47
2022/06/27 00:35:16;;;;;;;11.80;11.00;;;;;;;;;;5063269;28;24530;-47
2022/06/27 00:37:41;;;;;;;10.80;10.10;;;;;;;;;;5065438;28;24422;-47
2022/06/27 00:40:06;;;;;;;10.70;10.00;;;;;;;;;;5064815;28;24448;-46
2022/06/27 00:42:32;;;;;;;10.90;10.10;;;;;;;;;;5059916;28;24789;-46
2022/06/27 00:44:57;;;;;;;10.00;9.40;;;;;;;;;;4998952;28;1697023;-47
2022/06/27 00:47:22;;;;;;;11.80;10.90;;;;;;;;;;5066486;28;24588;-47
2022/06/27 00:49:47;;;;;;;11.60;10.80;;;;;;;;;;5075174;28;25137;-46
2022/06/27 00:52:13;;;;;;;11.77;10.97;;;;;;;;;;5061020;28;24425;-46
2022/06/27 00:54:40;;;;;;;11.73;10.93;;;;;;;;;;5063906;28;25087;-46
2022/06/27 00:57:06;;;;;;;11.30;10.50;;;;;;;;;;5051503;28;24518;-46
2022/06/27 00:59:31;;;;;;;11.75;10.95;;;;;;;;;;5068747;28;24545;-46
2022/06/27 01:01:56;;;;;;;11.80;10.90;;;;;;;;;;5058363;28;24425;-47
2022/06/27 01:04:22;;;;;;;10.60;9.90;;;;;;;;;;5062271;28;24473;-46
2022/06/27 01:06:53;;;;;;;11.93;11.13;;;;;;;;;;5056116;28;24434;-46
2022/06/27 01:09:19;;;;;;;10.18;9.48;;;;;;;;;;5064157;28;24431;-46
2022/06/27 01:11:44;;;;;;;10.60;9.90;;;;;;;;;;5056975;28;24429;-46
2022/06/27 01:14:10;;;;;;;12.43;11.53;;;;;;;;;;5061395;28;24517;-46
2022/06/27 01:16:35;;;;;;;10.68;9.98;;;;;;;;;;5063526;28;24824;-46
2022/06/27 01:19:02;;;;;;;9.90;9.20;;;;;;;;;;5075315;28;24495;-47
2022/06/27 01:21:30;;;;;;;10.68;9.98;;;;;;;;;;5062091;28;24418;-46
2022/06/27 01:23:56;;;;;;;11.48;10.60;;;;;;;;;;5061300;28;24477;-46
2022/06/27 01:26:22;;;;;;;11.23;10.52;;;;;;;;;;5062826;28;25371;-46
2022/06/27 01:28:48;;;;;;;11.40;10.60;;;;;;;;;;5060470;28;24447;-46
2022/06/27 01:31:14;;;;;;;11.20;10.40;;;;;;;;;;5065632;28;24998;-47
2022/06/27 01:33:39;;;;;;;11.20;10.30;;;;;;;;;;5058890;28;24438;-47
2022/06/27 01:38:50;;;;;;;10.32;9.63;;;;;;;;;;5073011;28;25019;-47
2022/06/27 01:41:15;;;;;;;10.87;10.17;;;;;;;;;;5059108;28;24434;-47
2022/06/27 01:43:40;;;;;;;11.23;10.38;;;;;;;;;;5059806;28;24691;-46
2022/06/27 01:46:05;;;;;;;10.90;10.10;;;;;;;;;;5063207;28;24554;-46
2022/06/27 01:48:31;;;;;;;11.00;10.20;;;;;;;;;;5068095;28;25013;-47
2022/06/27 01:50:57;;;;;;;11.10;10.30;;;;;;;;;;5062174;28;24510;-46
2022/06/27 01:53:23;;;;;;;10.88;10.15;;;;;;;;;;5065460;28;24511;-46
2022/06/27 01:55:48;;;;;;;11.00;10.20;;;;;;;;;;5067177;28;24434;-46
2022/06/27 01:58:13;;;;;;;10.77;10.07;;;;;;;;;;5069936;28;24956;-46
2022/06/27 02:00:38;;;;;;;11.68;10.80;;;;;;;;;;5066956;28;24425;-46
2022/06/27 02:03:03;;;;;;;10.98;10.18;;;;;;;;;;5069366;28;24425;-46
2022/06/27 02:05:29;;;;;;;12.48;11.57;;;;;;;;;;5064660;28;24949;-47
2022/06/27 02:07:55;;;;;;;11.87;10.87;;;;;;;;;;5078159;28;24427;-47
2022/06/27 02:10:20;;;;;;;11.32;10.52;;;;;;;;;;5064427;28;24832;-47
2022/06/27 02:12:45;;;;;;;12.00;11.10;;;;;;;;;;5073197;28;25286;-47
2022/06/27 02:15:11;;;;;;;12.27;11.27;;;;;;;;;;5068256;28;24440;-47
2022/06/27 02:17:36;;;;;;;12.40;11.50;;;;;;;;;;5064291;28;25056;-46
2022/06/27 02:20:02;;;;;;;12.82;11.80;;;;;;;;;;5075086;28;24512;-46
2022/06/27 02:22:28;;;;;;;12.82;11.93;;;;;;;;;;5066720;28;24425;-46
2022/06/27 02:24:53;;;;;;;12.43;11.52;;;;;;;;;;5079876;28;24437;-46
2022/06/27 02:27:19;;;;;;;12.50;11.50;;;;;;;;;;5061126;28;25039;-46
2022/06/27 02:29:44;;;;;;;12.50;11.60;;;;;;;;;;5071696;28;24567;-46
2022/06/27 02:32:10;;;;;;;11.70;10.90;;;;;;;;;;5064237;28;24843;-46
2022/06/27 02:34:36;;;;;;;12.40;11.50;;;;;;;;;;5064497;28;24414;-46
2022/06/27 02:37:02;;;;;;;12.70;11.80;;;;;;;;;;5082798;28;24976;-46
2022/06/27 02:39:29;;;;;;;13.10;12.10;;;;;;;;;;5062590;28;24786;-46
2022/06/27 02:41:58;;;;;;;12.70;11.80;;;;;;;;;;5073926;28;24973;-47
2022/06/27 02:44:23;;;;;;;13.40;12.50;;;;;;;;;;5066049;28;24430;-46
2022/06/27 02:46:49;;;;;;;12.20;11.40;;;;;;;;;;5072727;28;24492;-46
2022/06/27 02:49:15;;;;;;;12.65;11.65;;;;;;;;;;5080720;28;24426;-46
2022/06/27 02:51:46;;;;;;;13.30;12.43;;;;;;;;;;5065792;28;24827;-46
2022/06/27 02:54:15;;;;;;;13.10;12.20;;;;;;;;;;5068919;28;24521;-46
2022/06/27 02:56:49;;;;;;;14.43;13.43;;;;;;;;;;5073195;28;24523;-47
2022/06/27 02:59:19;;;;;;;13.80;12.80;;;;;;;;;;5077320;28;24450;-47
2022/06/27 03:01:46;;;;;;;12.93;12.03;;;;;;;;;;5067554;28;25191;-47
2022/06/27 03:04:12;;;;;;;13.90;13.00;;;;;;;;;;5074192;28;25041;-46
2022/06/27 03:06:37;;;;;;;12.73;11.73;;;;;;;;;;5070471;28;24426;-47
2022/06/27 03:09:02;;;;;;;12.50;11.60;;;;;;;;;;5067373;28;24419;-47
2022/06/27 03:11:27;;;;;;;13.33;12.23;;;;;;;;;;5078380;28;24414;-47
2022/06/27 03:13:53;;;;;;;13.50;12.50;;;;;;;;;;5063163;28;24823;-47
2022/06/27 03:16:19;;;;;;;13.60;12.70;;;;;;;;;;5064185;28;24966;-46
2022/06/27 03:18:45;;;;;;;13.57;12.57;;;;;;;;;;5080705;28;24422;-46
2022/06/27 03:21:11;;;;;;;13.57;12.57;;;;;;;;;;5084815;28;24842;-46
2022/06/27 03:23:37;;;;;;;12.80;11.90;;;;;;;;;;5063780;28;24510;-46
2022/06/27 03:26:02;;;;;;;14.17;12.97;;;;;;;;;;5063427;28;24530;-45
2022/06/27 03:28:28;;;;;;;14.50;13.40;;;;;;;;;;5058067;28;24469;-45
2022/06/27 03:30:53;;;;;;;13.75;12.75;;;;;;;;;;5069503;28;24475;-46
2022/06/27 03:33:18;;;;;;;13.00;12.00;;;;;;;;;;5074102;28;24430;-45
2022/06/27 03:35:43;;;;;;;13.40;12.40;;;;;;;;;;5074234;28;24426;-45
2022/06/27 03:38:09;;;;;;;12.60;11.70;;;;;;;;;;5069923;28;25087;-45
2022/06/27 03:40:34;;;;;;;12.10;11.20;;;;;;;;;;5075947;28;24435;-46
2022/06/27 03:43:00;;;;;;;12.80;11.80;;;;;;;;;;5066015;28;24538;-46
2022/06/27 03:45:25;;;;;;;12.90;12.00;;;;;;;;;;5070529;28;24519;-47
2022/06/27 03:47:52;;;;;;;12.70;11.70;;;;;;;;;;5064196;28;25042;-46
2022/06/27 03:50:17;;;;;;;12.90;11.90;;;;;;;;;;5063861;28;24419;-47
2022/06/27 03:52:43;;;;;;;12.33;11.53;;;;;;;;;;5075113;28;24450;-46
2022/06/27 03:55:08;;;;;;;12.17;11.37;;;;;;;;;;5063595;28;24878;-46
2022/06/27 03:57:53;;;;;;;11.95;10.95;;;;;;;;;;5059187;28;24502;-46
2022/06/27 04:00:23;;;;;;;13.38;12.38;;;;;;;;;;5060597;28;24442;-46
2022/06/27 04:02:49;;;;;;;11.20;10.30;;;;;;;;;;5067884;28;24468;-46
2022/06/27 04:05:14;;;;;;;12.13;11.20;;;;;;;;;;5074889;28;25058;-47
2022/06/27 04:07:39;;;;;;;12.13;11.18;;;;;;;;;;5062301;28;24508;-46
2022/06/27 04:10:06;;;;;;;11.00;10.30;;;;;;;;;;5069751;28;24434;-46
2022/06/27 04:12:31;;;;;;;10.60;9.90;;;;;;;;;;5064364;28;24825;-46
2022/06/27 04:14:56;;;;;;;10.50;9.80;;;;;;;;;;5065820;28;25044;-47
2022/06/27 04:17:21;;;;;;;11.48;10.57;;;;;;;;;;5065820;28;24414;-47
2022/06/27 04:19:46;;;;;;;11.80;11.00;;;;;;;;;;5060484;28;24431;-48
2022/06/27 04:22:12;;;;;;;11.50;10.70;;;;;;;;;;5055601;28;25020;-47
2022/06/27 04:24:37;;;;;;;10.68;9.90;;;;;;;;;;5071687;28;24426;-46
2022/06/27 04:27:02;;;;;;;10.53;9.83;;;;;;;;;;5080019;28;24855;-47
2022/06/27 04:29:28;;;;;;;10.47;9.77;;;;;;;;;;5073263;28;24518;-48
2022/06/27 04:31:54;;;;;;;9.90;9.30;;;;;;;;;;5062847;28;24769;-47
2022/06/27 04:34:19;;;;;;;10.33;9.63;;;;;;;;;;5055136;28;24488;-46
2022/06/27 04:36:45;;;;;;;10.50;9.80;;;;;;;;;;5062098;28;24489;-46
2022/06/27 04:39:15;;;;;;;9.20;8.60;;;;;;;;;;5057848;28;24423;-45
2022/06/27 04:41:41;;;;;;;10.13;9.43;;;;;;;;;;5063808;28;24497;-45
2022/06/27 04:44:06;;;;;;;10.30;9.60;;;;;;;;;;5061445;28;24833;-44
2022/06/27 04:46:32;;;;;;;9.88;9.27;;;;;;;;;;5058635;28;25223;-45
2022/06/27 04:48:58;;;;;;;9.50;8.90;;;;;;;;;;5061898;28;24852;-46
2022/06/27 04:51:23;;;;;;;8.90;8.40;;;;;;;;;;5059675;28;24471;-46
2022/06/27 04:53:48;;;;;;;9.23;8.70;;;;;;;;;;5059392;28;24439;-45
2022/06/27 04:56:14;;;;;;;8.90;8.40;;;;;;;;;;5058381;28;24483;-46
2022/06/27 04:58:39;;;;;;;8.70;8.10;;;;;;;;;;5058694;28;24914;-46
2022/06/27 05:01:04;;;;;;;8.68;8.18;;;;;;;;;;5070873;28;24964;-49
2022/06/27 05:03:30;;;;;;;8.87;8.37;;;;;;;;;;5060179;28;24437;-45
2022/06/27 05:05:55;;;;;;;8.30;7.80;;;;;;;;;;5055782;28;25017;-46
2022/06/27 05:08:20;;;;;;;8.17;7.67;;;;;;;;;;5059357;28;24425;-45
2022/06/27 05:10:46;;;;;;;8.53;8.03;;;;;;;;;;5058002;28;24426;-46
2022/06/27 05:13:11;;;;;;;7.83;7.33;;;;;;;;;;5057045;28;24538;-46
2022/06/27 05:15:39;;;;;;;8.70;8.20;;;;;;;;;;5055252;28;25399;-47
2022/06/27 05:18:04;;;;;;;8.50;7.90;;;;;;;;;;5061256;28;24423;-46
2022/06/27 05:20:30;;;;;;;8.88;8.32;;;;;;;;;;5066177;28;25046;-46
2022/06/27 05:22:55;;;;;;;8.47;7.97;;;;;;;;;;5064517;28;24426;-46
2022/06/27 05:25:21;;;;;;;7.93;7.43;;;;;;;;;;5066788;28;24441;-46
2022/06/27 05:27:46;;;;;;;8.00;7.50;;;;;;;;;;5064934;28;25188;-46
2022/06/27 05:30:11;;;;;;;8.10;7.60;;;;;;;;;;5066175;28;24426;-46
2022/06/27 05:32:36;;;;;;;8.00;7.40;;;;;;;;;;5067342;28;25051;-45
2022/06/27 05:35:01;;;;;;;8.10;7.60;;;;;;;;;;5064908;28;24419;-46
2022/06/27 05:37:27;;;;;;;8.10;7.70;;;;;;;;;;5059943;28;24442;-46
2022/06/27 05:39:52;;;;;;;8.30;7.80;;;;;;;;;;5048946;28;24517;-46
2022/06/27 05:42:18;;;;;;;8.23;7.73;;;;;;;;;;5047242;28;24461;-46
2022/06/27 05:44:44;;;;;;;8.20;7.70;;;;;;;;;;5068420;28;24965;-46
2022/06/27 05:47:09;;;;;;;8.17;7.67;;;;;;;;;;5056003;28;24959;-46
2022/06/27 05:49:34;;;;;;;7.67;7.17;;;;;;;;;;5068089;28;24976;-46
2022/06/27 05:52:00;;;;;;;7.80;7.30;;;;;;;;;;5063185;28;24435;-46
2022/06/27 05:54:26;;;;;;;8.55;8.05;;;;;;;;;;5060816;28;25057;-45
2022/06/27 05:56:51;;;;;;;7.30;6.80;;;;;;;;;;5065582;28;24422;-45
2022/06/27 05:59:17;;;;;;;7.75;7.30;;;;;;;;;;5061781;28;24418;-46
2022/06/27 06:01:43;;;;;;;7.63;7.13;;;;;;;;;;5067867;28;24425;-45
2022/06/27 06:04:08;;;;;;;7.75;7.25;;;;;;;;;;5067212;28;24398;-45
2022/06/27 06:06:33;;;;;;;7.20;6.80;;;;;;;;;;5060157;28;24559;-46
2022/06/27 06:08:59;;;;;;;8.37;7.77;;;;;;;;;;5063062;28;24600;-46
2022/06/27 06:11:25;;;;;;;7.40;7.00;;;;;;;;;;5075178;28;24418;-45
2022/06/27 06:13:52;;;;;;;7.60;7.10;;;;;;;;;;5067262;28;24423;-45
2022/06/27 06:16:19;;;;;;;7.70;7.30;;;;;;;;;;5061149;28;24431;-45
2022/06/27 06:18:45;;;;;;;7.10;6.70;;;;;;;;;;5065628;28;24422;-45
2022/06/27 06:21:10;;;;;;;7.30;6.80;;;;;;;;;;5067406;28;24437;-45
2022/06/27 06:23:36;;;;;;;7.10;6.53;;;;;;;;;;5071743;28;24754;-45
2022/06/27 06:26:02;;;;;;;7.47;6.85;;;;;;;;;;5088469;28;24389;-46
2022/06/27 06:28:31;;;;;;;6.90;6.50;;;;;;;;;;5059973;28;25215;-47
2022/06/27 06:30:56;;;;;;;7.60;7.07;;;;;;;;;;5070553;28;24446;-46
2022/06/27 06:33:21;;;;;;;7.30;6.90;;;;;;;;;;5069250;28;24539;-46
2022/06/27 06:35:47;;;;;;;8.10;7.60;;;;;;;;;;5060611;28;24427;-46
2022/06/27 06:38:12;;;;;;;8.00;7.40;;;;;;;;;;5082717;28;24487;-46
2022/06/27 06:40:38;;;;;;;7.50;7.00;;;;;;;;;;5064387;28;24410;-46
2022/06/27 06:43:04;;;;;;;7.28;6.85;;;;;;;;;;5067263;28;24796;-46
2022/06/27 06:45:30;;;;;;;7.53;7.00;;;;;;;;;;5067243;28;24454;-46
2022/06/27 06:47:55;;;;;;;7.35;6.85;;;;;;;;;;5065494;28;24465;-47
2022/06/27 06:50:21;;;;;;;7.00;6.60;;;;;;;;;;5065416;28;24454;-47
2022/06/27 06:52:49;;;;;;;7.33;6.83;;;;;;;;;;5066954;28;24402;-46
2022/06/27 06:55:15;;;;;;;7.05;6.57;;;;;;;;;;5066901;28;24513;-46
2022/06/27 06:57:40;;;;;;;8.10;7.40;;;;;;;;;;5067599;28;24436;-47
2022/06/27 07:00:06;;;;;;;7.07;6.53;;;;;;;;;;5065566;28;24414;-47
2022/06/27 07:02:31;;;;;;;7.35;6.85;;;;;;;;;;5067123;28;24399;-46
2022/06/27 07:04:58;;;;;;;6.93;6.43;;;;;;;;;;5066831;28;24940;-46
2022/06/27 07:07:25;;;;;;;7.40;6.90;;;;;;;;;;5067123;28;24390;-45
2022/06/27 07:09:50;;;;;;;7.50;7.00;;;;;;;;;;5065659;28;24484;-46
2022/06/27 07:12:16;;;;;;;7.38;6.80;;;;;;;;;;5066824;28;24399;-46
2022/06/27 07:14:42;;;;;;;7.40;6.90;;;;;;;;;;5067014;28;24403;-45
2022/06/27 07:17:07;;;;;;;7.30;6.70;;;;;;;;;;5067047;28;24663;-45
2022/06/27 07:19:33;;;;;;;7.35;6.95;;;;;;;;;;5062804;28;24427;-46
2022/06/27 07:21:59;;;;;;;6.80;6.30;;;;;;;;;;5067004;28;25173;-46
2022/06/27 07:24:24;;;;;;;8.27;6.65;;;;;;;;;;5066718;28;24564;-46
2022/06/27 07:26:50;;;;;;;6.70;6.30;;;;;;;;;;5066802;28;24433;-46
2022/06/27 07:29:16;;;;;;;6.90;6.30;;;;;;;;;;5066460;28;24422;-46
2022/06/27 07:31:41;;;;;;;6.38;5.88;;;;;;;;;;5064872;28;24402;-46
2022/06/27 07:34:08;;;;;;;6.10;5.70;;;;;;;;;;5066280;28;25001;-46
2022/06/27 07:36:33;;;;;;;6.20;5.70;;;;;;;;;;5066398;28;24412;-46
2022/06/27 07:38:58;;;;;;;5.77;5.40;;;;;;;;;;5066511;28;24486;-46
2022/06/27 07:41:24;;;;;;;5.07;4.77;;;;;;;;;;5061105;28;24802;-46
2022/06/27 07:43:49;;;;;;;4.90;4.60;;;;;;;;;;5065704;28;24959;-46
2022/06/27 07:46:17;;;;;;;4.90;4.50;;;;;;;;;;5065765;28;24961;-47
2022/06/27 07:48:43;;;;;;;4.80;4.40;;;;;;;;;;5066606;28;24417;-47
2022/06/27 07:51:08;;;;;;;4.78;4.40;;;;;;;;;;5064125;28;24433;-47
2022/06/27 07:53:35;;;;;;;4.55;4.25;;;;;;;;;;5064772;28;24452;-47
2022/06/27 07:56:01;;;;;;;4.50;4.20;;;;;;;;;;5066054;28;24974;-47
2022/06/27 07:58:33;;;;;;;4.80;4.40;;;;;;;;;;5065980;28;24406;-47
2022/06/27 08:00:59;;;;;;;4.50;4.20;;;;;;;;;;5063410;28;24419;-47
2022/06/27 08:03:37;;;;;;;4.10;3.90;;;;;;;;;;5066327;28;24407;-47
2022/06/27 08:06:15;;;;;;;4.40;4.00;;;;;;;;;;5066277;28;24444;-47
2022/06/27 08:08:41;;;;;;;5.25;3.72;;;;;;;;;;5066312;28;24483;-46
2022/06/27 08:11:11;;;;;;;4.40;4.10;;;;;;;;;;5066157;28;24490;-46
2022/06/27 08:13:36;;;;;;;4.20;3.90;;;;;;;;;;5062608;28;24490;-46
2022/06/27 08:16:02;;;;;;;4.10;3.70;;;;;;;;;;5066433;28;24417;-46
2022/06/27 08:18:30;;;;;;;4.00;3.70;;;;;;;;;;5066340;28;24386;-46
2022/06/27 08:20:55;;;;;;;4.03;3.60;;;;;;;;;;5066367;28;24390;-46
2022/06/27 08:23:21;;;;;;;4.40;4.20;;;;;;;;;;5063557;28;24773;-46
2022/06/27 08:25:47;;;;;;;4.50;4.10;;;;;;;;;;5066367;28;24438;-46
2022/06/27 08:28:14;;;;;;;4.07;3.67;;;;;;;;;;5065522;28;24464;-46
2022/06/27 08:30:41;;;;;;;3.60;3.30;;;;;;;;;;5066076;28;24446;-46
2022/06/27 08:33:07;;;;;;;3.13;2.92;;;;;;;;;;5063251;28;24464;-47
2022/06/27 08:35:32;;;;;;;3.87;3.57;;;;;;;;;;5065973;28;24423;-46
2022/06/27 08:37:58;;;;;;;6.80;3.70;;;;;;;;;;5065811;28;24406;-46
2022/06/27 08:40:24;;;;;;;3.40;3.20;;;;;;;;;;5066086;28;24395;-47
2022/06/27 08:42:49;;;;;;;4.50;3.50;;;;;;;;;;5065266;28;24434;-47
2022/06/27 08:45:15;;;;;;;4.00;3.70;;;;;;;;;;5062767;28;25055;-47
2022/06/27 08:47:41;;;;;;;4.00;3.30;;;;;;;;;;5065985;28;24403;-47
2022/06/27 08:50:07;;;;;;;3.38;3.17;;;;;;;;;;5065500;28;24449;-47
2022/06/27 08:52:34;;;;;;;3.30;3.00;;;;;;;;;;5065678;28;24444;-47
2022/06/27 08:55:01;;;;;;;3.70;3.50;;;;;;;;;;5065478;28;24518;-47
2022/06/27 08:57:26;;;;;;;4.13;3.60;;;;;;;;;;5069540;28;24706;-47
2022/06/27 08:59:53;;;;;;;3.60;3.30;;;;;;;;;;5069260;28;24441;-47
2022/06/27 09:02:21;;;;;;;3.70;3.50;;;;;;;;;;5069556;28;24478;-47
2022/06/27 09:04:57;;;;;;;4.00;3.70;;;;;;;;;;5067169;28;24419;-47
2022/06/27 09:07:23;;;;;;;4.43;4.13;;;;;;;;;;5069575;28;24394;-47
2022/06/27 09:09:48;;;;;;;3.80;3.60;;;;;;;;;;5069406;28;24497;-47
2022/06/27 09:12:13;;;;;;;3.70;3.40;;;;;;;;;;5069176;28;24425;-47
2022/06/27 09:14:40;;;;;;;3.60;3.30;;;;;;;;;;5068230;28;24453;-47
2022/06/27 09:17:09;;;;;;;4.10;3.80;;;;;;;;;;5068744;28;24920;-47
2022/06/27 09:19:48;;;;;;;4.07;3.53;;;;;;;;;;5069252;28;24410;-47
2022/06/27 09:22:15;;;;;;;3.65;3.45;;;;;;;;;;5068868;28;24969;-47
2022/06/27 09:24:57;;;;;;;4.30;4.00;;;;;;;;;;5065939;28;24438;-48
2022/06/27 09:27:38;;;;;;;3.80;3.60;;;;;;;;;;5068981;28;24459;-46
2022/06/27 09:30:23;;;;;;;4.30;4.00;;;;;;;;;;5069147;28;24950;-46
2022/06/27 09:32:53;;;;;;;3.90;3.60;;;;;;;;;;5069106;28;24438;-46
2022/06/27 09:35:36;;;;;;;4.65;4.15;;;;;;;;;;5067314;28;25276;-46
2022/06/27 09:38:02;;;;;;;3.90;3.60;;;;;;;;;;5069029;28;24430;-45
2022/06/27 09:40:29;;;;;;;4.90;4.50;;;;;;;;;;5068567;28;24481;-46
2022/06/27 09:42:56;;;;;;;4.18;3.88;;;;;;;;;;5068706;28;24407;-47
2022/06/27 09:45:25;;;;;;;3.88;3.58;;;;;;;;;;5066334;28;24450;-46
2022/06/27 09:48:02;;;;;;;3.90;3.70;;;;;;;;;;5068635;28;24521;-45
2022/06/27 09:50:32;;;;;;;3.90;3.60;;;;;;;;;;5068426;28;25008;-45
2022/06/27 09:52:58;;;;;;;3.60;3.30;;;;;;;;;;5067072;28;24419;-45
2022/06/27 09:55:23;;;;;;;4.00;3.60;;;;;;;;;;5063641;28;24509;-45
2022/06/27 09:57:49;;;;;;;3.50;3.30;;;;;;;;;;5068372;28;24545;-46
2022/06/27 10:00:15;;;;;;;3.58;3.38;;;;;;;;;;5068430;28;24460;-47
2022/06/27 10:02:40;;;;;;;3.30;3.10;;;;;;;;;;5068614;28;24406;-46
2022/06/27 10:05:05;;;;;;;4.00;3.70;;;;;;;;;;5065747;28;24394;-46
2022/06/27 10:07:31;;;;;;;3.35;3.15;;;;;;;;;;5053044;28;25031;-46
2022/06/27 10:09:56;;;;;;;3.78;3.58;;;;;;;;;;5068545;28;24391;-46
2022/06/27 10:12:24;;;;;;;3.90;3.60;;;;;;;;;;5068057;28;24751;-47
2022/06/27 10:15:17;;;;;;;4.00;3.80;;;;;;;;;;5067741;28;24488;-47
2022/06/27 10:17:45;;;;;;;3.83;3.47;;;;;;;;;;5066723;28;24540;-47
2022/06/27 10:20:12;;;;;;;3.90;3.60;;;;;;;;;;5068185;28;24466;-47
2022/06/27 10:22:37;;;;;;;3.50;3.20;;;;;;;;;;5068016;28;24387;-47
2022/06/27 10:25:21;;;;;;;3.53;3.30;;;;;;;;;;5068265;28;24812;-47
2022/06/27 10:27:49;;;;;;;2.90;2.70;;;;;;;;;;5065787;28;24464;-47
2022/06/27 10:30:33;;;;;;;3.30;3.10;;;;;;;;;;5066313;28;24821;-47
2022/06/27 10:32:58;;;;;;;3.30;3.00;;;;;;;;;;5067283;28;24430;-47
2022/06/27 10:35:24;;;;;;;3.20;2.70;;;;;;;;;;5067652;28;24422;-47
2022/06/27 10:37:49;;;;;;;3.20;3.00;;;;;;;;;;5067854;28;24390;-47
2022/06/27 10:40:20;;;;;;;3.50;3.20;;;;;;;;;;5065423;28;24802;-47
2022/06/27 10:42:45;;;;;;;2.95;2.75;;;;;;;;;;5067993;28;24391;-47
2022/06/27 10:45:20;;;;;;;3.50;3.20;;;;;;;;;;5067482;28;24843;-47
2022/06/27 10:47:48;;;;;;;3.80;3.60;;;;;;;;;;5066137;28;24429;-47
2022/06/27 10:50:14;;;;;;;3.50;3.20;;;;;;;;;;5067167;28;24399;-46
2022/06/27 10:52:39;;;;;;;3.40;3.10;;;;;;;;;;5067734;28;24402;-47
2022/06/27 10:55:20;;;;;;;3.13;2.93;;;;;;;;;;5067516;28;24437;-47
2022/06/27 10:57:45;;;;;;;3.50;3.30;;;;;;;;;;5065846;28;24418;-47
2022/06/27 11:00:11;;;;;;;4.10;3.80;;;;;;;;;;5067008;28;24451;-47
2022/06/27 11:02:37;;;;;;;3.75;3.47;;;;;;;;;;5067027;28;24410;-47
2022/06/27 11:05:02;;;;;;;3.50;3.20;;;;;;;;;;5067319;28;24418;-47
2022/06/27 11:07:28;;;;;;;2.97;2.78;;;;;;;;;;5067199;28;24394;-48
2022/06/27 11:09:53;;;;;;;3.00;2.80;;;;;;;;;;5065603;28;24415;-47
2022/06/27 11:12:23;;;;;;;3.40;3.20;;;;;;;;;;5067260;28;24919;-47
2022/06/27 11:14:48;;;;;;;3.30;3.10;;;;;;;;;;5067034;28;24812;-46
2022/06/27 11:17:29;;;;;;;3.17;2.97;;;;;;;;;;5066134;28;24749;-47
2022/06/27 11:20:09;;;;;;;3.15;2.95;;;;;;;;;;5064750;28;24415;-47
2022/06/27 11:22:35;;;;;;;3.63;3.42;;;;;;;;;;5067094;28;24824;-47
2022/06/27 11:25:01;;;;;;;3.90;3.57;;;;;;;;;;5066556;28;25004;-47
2022/06/27 11:27:42;;;;;;;3.20;3.00;;;;;;;;;;5066344;28;24470;-47
2022/06/27 11:32:51;;;;;;;3.70;3.50;;;;;;;;;;5066619;28;24506;-48
2022/06/27 11:35:16;;;;;;;4.22;3.70;;;;;;;;;;5066237;28;24513;-47
2022/06/27 11:37:41;;;;;;;3.80;3.60;;;;;;;;;;5066358;28;24966;-47
2022/06/27 11:40:07;;;;;;;4.10;3.30;;;;;;;;;;5064196;28;24503;-47
2022/06/27 11:42:33;;;;;;;3.70;3.50;;;;;;;;;;5066398;28;24917;-47
2022/06/27 11:45:03;;;;;;;3.45;3.25;;;;;;;;;;5066323;28;24496;-47
2022/06/27 11:47:28;;;;;;;3.95;3.65;;;;;;;;;;5066605;28;24834;-47
2022/06/27 11:50:07;;;;;;;4.07;3.27;;;;;;;;;;5064645;28;24490;-46
2022/06/27 11:52:37;;;;;;;3.70;3.40;;;;;;;;;;5056591;28;24423;-46
2022/06/27 11:55:07;;;;;;;3.67;3.47;;;;;;;;;;5043457;28;24411;-47
2022/06/27 11:57:32;;;;;;;3.70;3.50;;;;;;;;;;5046145;28;24391;-47
2022/06/27 11:59:58;;;;;;;3.80;3.50;;;;;;;;;;5045586;28;24893;-47
2022/06/27 12:02:26;;;;;;;3.30;3.10;;;;;;;;;;5060463;28;24486;-47
2022/06/27 12:05:02;;;;;;;3.87;3.57;;;;;;;;;;5065608;28;24784;-47
2022/06/27 12:07:27;;;;;;;4.00;3.70;;;;;;;;;;5065857;28;24395;-46
2022/06/27 12:09:52;;;;;;;3.92;3.63;;;;;;;;;;5065785;28;24390;-47
2022/06/27 12:12:18;;;;;;;3.88;3.58;;;;;;;;;;5063546;28;24913;-47
2022/06/27 12:14:48;;;;;;;3.88;3.55;;;;;;;;;;5065734;28;24426;-47
2022/06/27 12:17:13;;;;;;;3.58;3.30;;;;;;;;;;5065739;28;24387;-47
2022/06/27 12:19:41;;;;;;;3.60;3.40;;;;;;;;;;5065728;28;24964;-46
2022/06/27 12:22:07;;;;;;;3.58;3.30;;;;;;;;;;5063479;28;24418;-45
2022/06/27 12:24:32;;;;;;;3.60;3.40;;;;;;;;;;5065077;28;24403;-46
2022/06/27 12:26:57;;;;;;;3.50;3.30;;;;;;;;;;5065609;28;24414;-46
2022/06/27 12:29:22;;;;;;;4.00;3.70;;;;;;;;;;5065662;28;24588;-47
2022/06/27 12:31:48;;;;;;;3.67;3.37;;;;;;;;;;5065989;28;24383;-46
2022/06/27 12:34:13;;;;;;;4.27;3.87;;;;;;;;;;5058220;28;24777;-46
2022/06/27 12:36:38;;;;;;;4.20;3.80;;;;;;;;;;5063510;28;24565;-46
2022/06/27 12:39:04;;;;;;;4.25;3.90;;;;;;;;;;5066129;28;24387;-46
2022/06/27 12:41:29;;;;;;;4.10;3.80;;;;;;;;;;5065675;28;24841;-46
2022/06/27 12:43:56;;;;;;;3.70;3.50;;;;;;;;;;5065521;28;24445;-46
2022/06/27 12:46:22;;;;;;;3.78;3.53;;;;;;;;;;5065425;28;24504;-46
2022/06/27 12:48:47;;;;;;;3.85;3.55;;;;;;;;;;5065441;28;25031;-46
2022/06/27 12:51:13;;;;;;;3.60;3.40;;;;;;;;;;5065418;28;24490;-46
2022/06/27 12:53:38;;;;;;;3.97;3.67;;;;;;;;;;5048618;28;25200;-46
2022/06/27 12:56:04;;;;;;;3.60;3.40;;;;;;;;;;5045295;28;24423;-46
2022/06/27 12:58:30;;;;;;;4.33;4.00;;;;;;;;;;5045653;28;24384;-46
2022/06/27 13:00:55;;;;;;;4.10;3.90;;;;;;;;;;5045306;28;24984;-46
2022/06/27 13:03:20;;;;;;;3.70;3.50;;;;;;;;;;5045403;28;24387;-46
2022/06/27 13:05:46;;;;;;;3.70;3.50;;;;;;;;;;5045071;28;24415;-45
2022/06/27 13:08:11;;;;;;;4.00;3.80;;;;;;;;;;5053012;28;24399;-46
2022/06/27 13:10:37;;;;;;;3.87;3.67;;;;;;;;;;5065676;28;25188;-46
2022/06/27 13:13:02;;;;;;;4.00;3.80;;;;;;;;;;5065539;28;24394;-46
2022/06/27 13:15:29;;;;;;;4.30;4.00;;;;;;;;;;5064993;28;24426;-47
2022/06/27 13:17:54;;;;;;;4.30;4.00;;;;;;;;;;5065400;28;24398;-46
2022/06/27 13:20:19;;;;;;;4.00;3.80;;;;;;;;;;5065344;28;24912;-46
2022/06/27 13:22:45;;;;;;;3.95;3.75;;;;;;;;;;5065677;28;24391;-46
2022/06/27 13:25:11;;;;;;;3.90;3.70;;;;;;;;;;5066033;28;24937;-46
2022/06/27 13:27:36;;;;;;;4.63;4.32;;;;;;;;;;5064712;28;24406;-46
2022/06/27 13:30:01;;;;;;;3.90;3.60;;;;;;;;;;5065319;28;24391;-46
2022/06/27 13:32:26;;;;;;;4.33;3.93;;;;;;;;;;5062589;28;24427;-46
2022/06/27 13:34:51;;;;;;;4.00;3.70;;;;;;;;;;5062497;28;24431;-46
2022/06/27 13:37:16;;;;;;;4.20;4.00;;;;;;;;;;5065102;28;24631;-47
2022/06/27 13:39:42;;;;;;;4.33;4.03;;;;;;;;;;5065013;28;24383;-47
2022/06/27 13:42:07;;;;;;;4.93;4.60;;;;;;;;;;5066575;28;24415;-47
2022/06/27 13:44:32;;;;;;;4.60;4.30;;;;;;;;;;5067000;28;24426;-47
2022/06/27 13:47:01;;;;;;;4.60;4.30;;;;;;;;;;5068834;28;24414;-47
2022/06/27 13:49:27;;;;;;;4.72;4.35;;;;;;;;;;5068397;28;24862;-48
2022/06/27 13:51:52;;;;;;;4.90;4.50;;;;;;;;;;5066234;28;24655;-47
2022/06/27 13:54:17;;;;;;;4.00;3.80;;;;;;;;;;5066074;28;24433;-47
2022/06/27 13:56:42;;;;;;;4.18;3.88;;;;;;;;;;5064800;28;24473;-47
2022/06/27 13:59:10;;;;;;;4.20;4.00;;;;;;;;;;5068537;28;24924;-48
2022/06/27 14:01:35;;;;;;;4.50;4.20;;;;;;;;;;5068389;28;24954;-47
2022/06/27 14:04:01;;;;;;;4.60;4.30;;;;;;;;;;5068329;28;24474;-50
2022/06/27 14:09:10;;;;;;;4.65;4.40;;;;;;;;;;5067531;28;25058;-47
2022/06/27 14:11:36;;;;;;;4.60;4.30;;;;;;;;;;5065398;28;24439;-47
2022/06/27 14:14:01;;;;;;;4.50;4.30;;;;;;;;;;5066880;28;25035;-47
2022/06/27 14:16:27;;;;;;;5.10;4.80;;;;;;;;;;5068184;28;24470;-47
2022/06/27 14:18:52;;;;;;;4.95;4.65;;;;;;;;;;5064320;28;24461;-47
2022/06/27 14:21:17;;;;;;;4.40;4.10;;;;;;;;;;5062737;28;24434;-47
2022/06/27 14:23:42;;;;;;;4.50;4.20;;;;;;;;;;5075298;28;24475;-47
2022/06/27 14:26:07;;;;;;;4.80;4.50;;;;;;;;;;5088076;28;24398;-47
2022/06/27 14:28:33;;;;;;;4.70;4.40;;;;;;;;;;5087824;28;24482;-47
2022/06/27 14:30:58;;;;;;;5.33;4.93;;;;;;;;;;5078201;28;24836;-46
2022/06/27 14:33:24;;;;;;;4.40;4.10;;;;;;;;;;5067655;28;25006;-47
2022/06/27 14:35:49;;;;;;;4.80;4.50;;;;;;;;;;5067675;28;24411;-46
2022/06/27 14:38:15;;;;;;;4.67;4.37;;;;;;;;;;5067521;28;24394;-46
2022/06/27 14:40:41;;;;;;;4.10;3.80;;;;;;;;;;5067897;28;24406;-46